BER1010 EHAM-LFPG
Flight info
| Callsign | BER1010 |
|---|---|
| Flight time | 0h 50m |
| Altitude | 29000 |
| Route | WOODY N872 DENOX DCT SISGA DCT DELOM DCT MOPIL |
| Aircraft | B738/M-SDE2E3FGHIRWXY/LB1 |
Departure
| Time | 2026-05-08 04:56 |
|---|---|
| Airport | Amsterdam Airport Schiphol (EHAM) |
Arrival
| Time | 2026-05-08 05:47 |
|---|---|
| Airport | Charles de Gaulle International Airport (LFPG) |
| Time | Latitude | Longitude | Altitude | Speed | Heading |
|---|---|---|---|---|---|
| 2026-05-08 04:37 | 52.31002 | 4.77117 | -3 ft | 0 kts | 184° |
| 2026-05-08 04:47 | 52.31016 | 4.77119 | -3 ft | 4 kts | 187° |
| 2026-05-08 04:48 | 52.31042 | 4.77127 | -3 ft | 4 kts | 199° |
| 2026-05-08 04:48 | 52.31066 | 4.77145 | -3 ft | 4 kts | 219° |
| 2026-05-08 04:48 | 52.31081 | 4.77177 | -3 ft | 4 kts | 267° |
| 2026-05-08 04:48 | 52.31081 | 4.77183 | -3 ft | 2 kts | 272° |
| 2026-05-08 04:50 | 52.31081 | 4.77162 | -2 ft | 5 kts | 272° |
| 2026-05-08 04:51 | 52.31083 | 4.77053 | -3 ft | 14 kts | 272° |
| 2026-05-08 04:51 | 52.31135 | 4.76934 | -3 ft | 15 kts | 0° |
| 2026-05-08 04:51 | 52.31221 | 4.77013 | -3 ft | 14 kts | 33° |
| 2026-05-08 04:51 | 52.31301 | 4.77098 | -3 ft | 13 kts | 33° |
| 2026-05-08 04:52 | 52.31376 | 4.77179 | -3 ft | 13 kts | 24° |
| 2026-05-08 04:52 | 52.31464 | 4.77189 | -3 ft | 13 kts | 1° |
| 2026-05-08 04:52 | 52.31549 | 4.77179 | -4 ft | 12 kts | 331° |
| 2026-05-08 04:52 | 52.31566 | 4.77051 | -4 ft | 12 kts | 268° |
| 2026-05-08 04:53 | 52.31562 | 4.76904 | -4 ft | 14 kts | 266° |
| 2026-05-08 04:53 | 52.31556 | 4.76723 | -4 ft | 18 kts | 267° |
| 2026-05-08 04:53 | 52.31549 | 4.76508 | -3 ft | 21 kts | 268° |
| 2026-05-08 04:53 | 52.31541 | 4.76258 | -3 ft | 23 kts | 266° |
| 2026-05-08 04:54 | 52.31531 | 4.76004 | -3 ft | 22 kts | 266° |
| 2026-05-08 04:54 | 52.31522 | 4.75757 | -4 ft | 21 kts | 267° |
| 2026-05-08 04:54 | 52.31513 | 4.75517 | -4 ft | 21 kts | 266° |
| 2026-05-08 04:54 | 52.31505 | 4.75284 | -4 ft | 20 kts | 267° |
| 2026-05-08 04:55 | 52.31498 | 4.75058 | -4 ft | 20 kts | 267° |
| 2026-05-08 04:55 | 52.31490 | 4.74840 | -3 ft | 19 kts | 265° |
| 2026-05-08 04:55 | 52.31530 | 4.74668 | -3 ft | 17 kts | 339° |
| 2026-05-08 04:55 | 52.31641 | 4.74681 | -1 ft | 16 kts | 33° |
| 2026-05-08 04:56 | 52.31673 | 4.74860 | -4 ft | 23 kts | 87° |
| 2026-05-08 04:56 | 52.31695 | 4.75515 | -7 ft | 97 kts | 86° |
| 2026-05-08 04:56 | 52.31745 | 4.76992 | 4 ft | 162 kts | 87° |
| 2026-05-08 04:56 | 52.31790 | 4.78928 | 720 ft | 170 kts | 89° |
| 2026-05-08 04:57 | 52.31837 | 4.80858 | 1680 ft | 175 kts | 88° |
| 2026-05-08 04:57 | 52.31861 | 4.82950 | 2310 ft | 192 kts | 94° |
| 2026-05-08 04:57 | 52.31359 | 4.85036 | 2724 ft | 211 kts | 132° |
| 2026-05-08 04:57 | 52.30029 | 4.86118 | 3115 ft | 224 kts | 174° |
| 2026-05-08 04:58 | 52.28468 | 4.86141 | 3685 ft | 229 kts | 178° |
| 2026-05-08 04:58 | 52.26879 | 4.86362 | 4355 ft | 229 kts | 171° |
| 2026-05-08 04:58 | 52.25295 | 4.86701 | 4986 ft | 233 kts | 182° |
| 2026-05-08 04:58 | 52.23678 | 4.86160 | 5478 ft | 242 kts | 193° |
| 2026-05-08 04:59 | 52.22009 | 4.85621 | 6112 ft | 246 kts | 188° |
| 2026-05-08 04:59 | 52.20312 | 4.85246 | 6839 ft | 247 kts | 186° |
| 2026-05-08 04:59 | 52.18532 | 4.84977 | 7258 ft | 265 kts | 184° |
| 2026-05-08 04:59 | 52.16661 | 4.84788 | 7959 ft | 273 kts | 183° |
| 2026-05-08 05:00 | 52.14757 | 4.84658 | 8819 ft | 274 kts | 182° |
| 2026-05-08 05:00 | 52.12842 | 4.84566 | 9663 ft | 278 kts | 182° |
| 2026-05-08 05:00 | 52.10915 | 4.84498 | 10377 ft | 283 kts | 182° |
| 2026-05-08 05:00 | 52.08871 | 4.84442 | 10626 ft | 307 kts | 181° |
| 2026-05-08 05:01 | 52.06655 | 4.84391 | 10838 ft | 329 kts | 181° |
| 2026-05-08 05:01 | 52.04324 | 4.84343 | 11335 ft | 340 kts | 181° |
| 2026-05-08 05:01 | 52.01949 | 4.84075 | 12011 ft | 344 kts | 194° |
| 2026-05-08 05:01 | 51.99740 | 4.82605 | 12800 ft | 344 kts | 207° |
| 2026-05-08 05:02 | 51.97591 | 4.80839 | 13543 ft | 348 kts | 207° |
| 2026-05-08 05:02 | 51.95408 | 4.79088 | 14210 ft | 353 kts | 207° |
| 2026-05-08 05:02 | 51.93220 | 4.77362 | 14844 ft | 356 kts | 207° |
| 2026-05-08 05:02 | 51.90982 | 4.75609 | 15519 ft | 359 kts | 207° |
| 2026-05-08 05:03 | 51.88727 | 4.73846 | 16194 ft | 361 kts | 207° |
| 2026-05-08 05:03 | 51.86452 | 4.72070 | 16851 ft | 365 kts | 207° |
| 2026-05-08 05:03 | 51.84157 | 4.70279 | 17496 ft | 368 kts | 207° |
| 2026-05-08 05:03 | 51.81841 | 4.68473 | 18135 ft | 371 kts | 207° |
| 2026-05-08 05:04 | 51.79506 | 4.66654 | 18716 ft | 374 kts | 207° |
| 2026-05-08 05:04 | 51.77180 | 4.64844 | 19272 ft | 377 kts | 207° |
| 2026-05-08 05:04 | 51.74810 | 4.63002 | 19830 ft | 380 kts | 207° |
| 2026-05-08 05:04 | 51.72424 | 4.61148 | 20383 ft | 382 kts | 207° |
| 2026-05-08 05:05 | 51.70020 | 4.59283 | 20924 ft | 385 kts | 207° |
| 2026-05-08 05:05 | 51.67594 | 4.57405 | 21457 ft | 388 kts | 207° |
| 2026-05-08 05:05 | 51.65159 | 4.55520 | 21979 ft | 390 kts | 207° |
| 2026-05-08 05:05 | 51.62699 | 4.53617 | 22493 ft | 393 kts | 207° |
| 2026-05-08 05:06 | 51.60225 | 4.51704 | 22999 ft | 396 kts | 207° |
| 2026-05-08 05:06 | 51.57736 | 4.49781 | 23502 ft | 399 kts | 207° |
| 2026-05-08 05:06 | 51.55262 | 4.47871 | 23932 ft | 401 kts | 207° |
| 2026-05-08 05:06 | 51.52748 | 4.45934 | 24446 ft | 400 kts | 207° |
| 2026-05-08 05:07 | 51.50246 | 4.44008 | 25046 ft | 397 kts | 207° |
| 2026-05-08 05:07 | 51.47766 | 4.42101 | 25646 ft | 394 kts | 207° |
| 2026-05-08 05:07 | 51.45299 | 4.40205 | 26198 ft | 392 kts | 207° |
| 2026-05-08 05:07 | 51.42841 | 4.38319 | 26719 ft | 392 kts | 207° |
| 2026-05-08 05:08 | 51.40382 | 4.36436 | 27221 ft | 391 kts | 207° |
| 2026-05-08 05:08 | 51.37923 | 4.34584 | 27777 ft | 389 kts | 206° |
| 2026-05-08 05:08 | 51.35475 | 4.32760 | 28318 ft | 388 kts | 206° |
| 2026-05-08 05:08 | 51.33061 | 4.30965 | 28821 ft | 387 kts | 206° |
| 2026-05-08 05:09 | 51.30617 | 4.29141 | 29097 ft | 390 kts | 207° |
| 2026-05-08 05:09 | 51.28154 | 4.27271 | 29099 ft | 391 kts | 207° |
| 2026-05-08 05:09 | 51.23286 | 4.23555 | 29088 ft | 385 kts | 207° |
| 2026-05-08 05:10 | 51.15989 | 4.18060 | 29098 ft | 389 kts | 204° |
| 2026-05-08 05:11 | 51.10911 | 4.15201 | 29101 ft | 390 kts | 200° |
| 2026-05-08 05:11 | 51.05748 | 4.12481 | 29086 ft | 391 kts | 200° |
| 2026-05-08 05:12 | 51.00611 | 4.09713 | 29074 ft | 390 kts | 201° |
| 2026-05-08 05:12 | 50.95492 | 4.06925 | 29074 ft | 388 kts | 201° |
| 2026-05-08 05:13 | 50.90420 | 4.04177 | 29075 ft | 387 kts | 199° |
| 2026-05-08 05:13 | 50.85080 | 4.03000 | 29075 ft | 391 kts | 180° |
| 2026-05-08 05:14 | 50.79642 | 4.03633 | 29060 ft | 392 kts | 178° |
| 2026-05-08 05:14 | 50.74200 | 4.04312 | 29078 ft | 392 kts | 178° |
| 2026-05-08 05:15 | 50.68752 | 4.04933 | 29076 ft | 393 kts | 178° |
| 2026-05-08 05:15 | 50.63336 | 4.05530 | 29075 ft | 393 kts | 178° |
| 2026-05-08 05:16 | 50.57873 | 4.06130 | 29077 ft | 394 kts | 178° |
| 2026-05-08 05:16 | 50.52409 | 4.06727 | 29077 ft | 393 kts | 178° |
| 2026-05-08 05:17 | 50.46956 | 4.07321 | 29078 ft | 393 kts | 178° |
| 2026-05-08 05:17 | 50.41546 | 4.07910 | 29071 ft | 390 kts | 178° |
| 2026-05-08 05:17 | 50.38882 | 4.08201 | 29053 ft | 376 kts | 178° |
| 2026-05-08 05:18 | 50.36316 | 4.08482 | 29054 ft | 365 kts | 178° |
| 2026-05-08 05:18 | 50.31347 | 4.09020 | 29051 ft | 347 kts | 178° |
| 2026-05-08 05:18 | 50.28982 | 4.09277 | 29052 ft | 334 kts | 178° |
| 2026-05-08 05:19 | 50.27468 | 4.09441 | 29051 ft | 326 kts | 178° |
| 2026-05-08 05:19 | 50.25247 | 4.09681 | 29056 ft | 314 kts | 179° |
| 2026-05-08 05:19 | 50.23070 | 4.09913 | 29078 ft | 315 kts | 179° |
| 2026-05-08 05:19 | 50.20111 | 4.10227 | 29101 ft | 329 kts | 178° |
| 2026-05-08 05:20 | 50.17800 | 4.10474 | 29088 ft | 336 kts | 178° |
| 2026-05-08 05:20 | 50.13162 | 4.10822 | 29068 ft | 330 kts | 184° |
| 2026-05-08 05:21 | 50.09375 | 4.10547 | 29067 ft | 326 kts | 186° |
| 2026-05-08 05:21 | 50.04873 | 4.10127 | 29064 ft | 322 kts | 185° |
| 2026-05-08 05:22 | 49.99691 | 4.09694 | 29062 ft | 320 kts | 185° |
| 2026-05-08 05:22 | 49.95964 | 4.09404 | 29077 ft | 320 kts | 185° |
| 2026-05-08 05:23 | 49.91521 | 4.09069 | 29073 ft | 323 kts | 185° |
| 2026-05-08 05:23 | 49.87005 | 4.08733 | 29076 ft | 326 kts | 185° |
| 2026-05-08 05:24 | 49.82450 | 4.08396 | 29072 ft | 328 kts | 185° |
| 2026-05-08 05:24 | 49.77879 | 4.08059 | 29064 ft | 329 kts | 185° |
| 2026-05-08 05:25 | 49.73314 | 4.07724 | 29061 ft | 328 kts | 185° |
| 2026-05-08 05:25 | 49.68802 | 4.07392 | 29057 ft | 326 kts | 185° |
| 2026-05-08 05:26 | 49.64289 | 4.07061 | 29058 ft | 324 kts | 185° |
| 2026-05-08 05:26 | 49.59990 | 4.05706 | 28816 ft | 312 kts | 214° |
| 2026-05-08 05:26 | 49.58352 | 4.03585 | 28248 ft | 310 kts | 231° |
| 2026-05-08 05:27 | 49.57081 | 4.00829 | 27138 ft | 324 kts | 236° |
| 2026-05-08 05:27 | 49.55837 | 3.97826 | 26085 ft | 338 kts | 237° |
| 2026-05-08 05:27 | 49.54591 | 3.94747 | 25440 ft | 338 kts | 239° |
| 2026-05-08 05:27 | 49.53625 | 3.91531 | 24949 ft | 334 kts | 247° |
| 2026-05-08 05:28 | 49.52788 | 3.88166 | 23971 ft | 344 kts | 248° |
| 2026-05-08 05:28 | 49.51927 | 3.84628 | 22726 ft | 359 kts | 248° |
| 2026-05-08 05:28 | 49.51047 | 3.81027 | 21903 ft | 359 kts | 248° |
| 2026-05-08 05:28 | 49.50166 | 3.77470 | 21288 ft | 353 kts | 248° |
| 2026-05-08 05:29 | 49.49288 | 3.73960 | 20662 ft | 349 kts | 248° |
| 2026-05-08 05:29 | 49.48413 | 3.70492 | 19989 ft | 347 kts | 248° |
| 2026-05-08 05:29 | 49.47538 | 3.67041 | 19325 ft | 345 kts | 247° |
| 2026-05-08 05:29 | 49.46665 | 3.63609 | 18667 ft | 344 kts | 247° |
| 2026-05-08 05:30 | 49.45807 | 3.60242 | 17981 ft | 342 kts | 247° |
| 2026-05-08 05:30 | 49.44940 | 3.56849 | 17268 ft | 340 kts | 247° |
| 2026-05-08 05:30 | 49.44079 | 3.53477 | 16595 ft | 337 kts | 247° |
| 2026-05-08 05:30 | 49.43236 | 3.50185 | 16209 ft | 326 kts | 247° |
| 2026-05-08 05:31 | 49.42413 | 3.46977 | 15759 ft | 319 kts | 247° |
| 2026-05-08 05:31 | 49.41585 | 3.43866 | 15331 ft | 311 kts | 244° |
| 2026-05-08 05:31 | 49.40672 | 3.40880 | 14842 ft | 308 kts | 243° |
| 2026-05-08 05:31 | 49.39733 | 3.37958 | 14470 ft | 309 kts | 243° |
| 2026-05-08 05:32 | 49.38780 | 3.35018 | 14166 ft | 306 kts | 243° |
| 2026-05-08 05:32 | 49.37840 | 3.32113 | 13895 ft | 302 kts | 243° |
| 2026-05-08 05:32 | 49.36915 | 3.29243 | 13607 ft | 298 kts | 243° |
| 2026-05-08 05:32 | 49.36004 | 3.26408 | 13330 ft | 294 kts | 243° |
| 2026-05-08 05:33 | 49.35107 | 3.23613 | 13080 ft | 290 kts | 243° |
| 2026-05-08 05:33 | 49.34226 | 3.20864 | 12829 ft | 285 kts | 243° |
| 2026-05-08 05:33 | 49.33356 | 3.18148 | 12582 ft | 282 kts | 243° |
| 2026-05-08 05:33 | 49.32497 | 3.15468 | 12352 ft | 279 kts | 243° |
| 2026-05-08 05:34 | 49.31657 | 3.12849 | 12127 ft | 277 kts | 243° |
| 2026-05-08 05:34 | 49.30812 | 3.10213 | 11891 ft | 275 kts | 243° |
| 2026-05-08 05:34 | 49.29967 | 3.07583 | 11654 ft | 274 kts | 244° |
| 2026-05-08 05:34 | 49.29127 | 3.04969 | 11424 ft | 273 kts | 244° |
| 2026-05-08 05:35 | 49.28288 | 3.02360 | 11188 ft | 273 kts | 244° |
| 2026-05-08 05:35 | 49.27448 | 2.99753 | 10960 ft | 273 kts | 244° |
| 2026-05-08 05:35 | 49.26609 | 2.97148 | 10731 ft | 273 kts | 244° |
| 2026-05-08 05:35 | 49.25768 | 2.94542 | 10497 ft | 273 kts | 244° |
| 2026-05-08 05:36 | 49.24927 | 2.91937 | 10272 ft | 273 kts | 244° |
| 2026-05-08 05:36 | 49.24088 | 2.89343 | 10033 ft | 270 kts | 244° |
| 2026-05-08 05:36 | 49.23269 | 2.86812 | 9784 ft | 267 kts | 244° |
| 2026-05-08 05:36 | 49.22450 | 2.84282 | 9540 ft | 264 kts | 244° |
| 2026-05-08 05:37 | 49.21635 | 2.81767 | 9311 ft | 264 kts | 244° |
| 2026-05-08 05:37 | 49.20816 | 2.79245 | 9096 ft | 265 kts | 244° |
| 2026-05-08 05:37 | 49.19994 | 2.76713 | 8872 ft | 266 kts | 244° |
| 2026-05-08 05:37 | 49.19168 | 2.74175 | 8648 ft | 267 kts | 244° |
| 2026-05-08 05:38 | 49.18338 | 2.71625 | 8424 ft | 268 kts | 244° |
| 2026-05-08 05:38 | 49.17504 | 2.69065 | 8190 ft | 269 kts | 244° |
| 2026-05-08 05:38 | 49.16668 | 2.66502 | 7933 ft | 270 kts | 244° |
| 2026-05-08 05:38 | 49.15844 | 2.63977 | 7663 ft | 268 kts | 244° |
| 2026-05-08 05:39 | 49.15016 | 2.61445 | 7445 ft | 265 kts | 244° |
| 2026-05-08 05:39 | 49.14195 | 2.58935 | 7206 ft | 263 kts | 244° |
| 2026-05-08 05:39 | 49.13377 | 2.56439 | 6987 ft | 262 kts | 244° |
| 2026-05-08 05:39 | 49.12565 | 2.53960 | 6765 ft | 261 kts | 245° |
| 2026-05-08 05:40 | 49.11754 | 2.51487 | 6548 ft | 260 kts | 244° |
| 2026-05-08 05:40 | 49.10944 | 2.49021 | 6316 ft | 260 kts | 244° |
| 2026-05-08 05:40 | 49.10133 | 2.46553 | 6085 ft | 260 kts | 244° |
| 2026-05-08 05:40 | 49.09326 | 2.44098 | 5862 ft | 258 kts | 244° |
| 2026-05-08 05:41 | 49.08536 | 2.41700 | 5647 ft | 255 kts | 244° |
| 2026-05-08 05:41 | 49.07748 | 2.39306 | 5434 ft | 251 kts | 244° |
| 2026-05-08 05:41 | 49.06968 | 2.36941 | 5224 ft | 247 kts | 243° |
| 2026-05-08 05:41 | 49.06208 | 2.34641 | 5004 ft | 238 kts | 243° |
| 2026-05-08 05:42 | 49.05477 | 2.32432 | 4804 ft | 229 kts | 243° |
| 2026-05-08 05:42 | 49.04769 | 2.30295 | 4616 ft | 221 kts | 243° |
| 2026-05-08 05:42 | 49.03954 | 2.28416 | 4420 ft | 207 kts | 217° |
| 2026-05-08 05:42 | 49.02661 | 2.27805 | 4314 ft | 197 kts | 171° |
| 2026-05-08 05:43 | 49.01428 | 2.28759 | 3823 ft | 211 kts | 128° |
| 2026-05-08 05:43 | 49.00945 | 2.30804 | 3316 ft | 215 kts | 86° |
| 2026-05-08 05:43 | 49.01296 | 2.32963 | 2978 ft | 207 kts | 76° |
| 2026-05-08 05:43 | 49.01546 | 2.35070 | 2687 ft | 198 kts | 84° |
| 2026-05-08 05:44 | 49.01675 | 2.37112 | 2411 ft | 190 kts | 85° |
| 2026-05-08 05:44 | 49.01783 | 2.39038 | 2167 ft | 175 kts | 86° |
| 2026-05-08 05:44 | 49.01875 | 2.40824 | 1938 ft | 163 kts | 86° |
| 2026-05-08 05:44 | 49.01958 | 2.42457 | 1772 ft | 146 kts | 86° |
| 2026-05-08 05:45 | 49.02033 | 2.43927 | 1543 ft | 136 kts | 86° |
| 2026-05-08 05:45 | 49.02106 | 2.45348 | 1370 ft | 137 kts | 86° |
| 2026-05-08 05:45 | 49.02181 | 2.46795 | 1172 ft | 137 kts | 86° |
| 2026-05-08 05:45 | 49.02252 | 2.48232 | 1021 ft | 132 kts | 85° |
| 2026-05-08 05:46 | 49.02323 | 2.49617 | 782 ft | 131 kts | 84° |
| 2026-05-08 05:46 | 49.02401 | 2.51012 | 617 ft | 134 kts | 85° |
| 2026-05-08 05:46 | 49.02475 | 2.52425 | 422 ft | 133 kts | 84° |
| 2026-05-08 05:46 | 49.02542 | 2.53732 | 361 ft | 113 kts | 82° |
| 2026-05-08 05:47 | 49.02595 | 2.54704 | 357 ft | 71 kts | 85° |
| 2026-05-08 05:47 | 49.02596 | 2.55183 | 355 ft | 32 kts | 107° |
| 2026-05-08 05:47 | 49.02517 | 2.55467 | 359 ft | 24 kts | 115° |
| 2026-05-08 05:47 | 49.02395 | 2.55615 | 355 ft | 25 kts | 173° |
| 2026-05-08 05:48 | 49.02214 | 2.55639 | 353 ft | 27 kts | 175° |
| 2026-05-08 05:48 | 49.02082 | 2.55614 | 355 ft | 17 kts | 230° |
| 2026-05-08 05:48 | 49.02059 | 2.55425 | 353 ft | 20 kts | 266° |
| 2026-05-08 05:48 | 49.02047 | 2.55201 | 362 ft | 23 kts | 265° |
| 2026-05-08 05:49 | 49.02026 | 2.54952 | 360 ft | 25 kts | 251° |
| 2026-05-08 05:49 | 49.01885 | 2.54846 | 355 ft | 22 kts | 174° |
| 2026-05-08 05:49 | 49.01840 | 2.54719 | 353 ft | 17 kts | 265° |
| 2026-05-08 05:49 | 49.01831 | 2.54525 | 353 ft | 20 kts | 266° |
| 2026-05-08 05:50 | 49.01817 | 2.54353 | 358 ft | 13 kts | 246° |
| 2026-05-08 05:50 | 49.01764 | 2.54258 | 356 ft | 9 kts | 232° |
| 2026-05-08 05:50 | 49.01797 | 2.54181 | 353 ft | 11 kts | 291° |
| 2026-05-08 05:50 | 49.01743 | 2.54115 | 360 ft | 6 kts | 206° |
| 2026-05-08 05:51 | 49.01719 | 2.54096 | 359 ft | 0 kts | 208° |